createdAt,value
2023-03-21T00:01:52.268Z,15.57
2023-03-21T00:04:19.386Z,16.15
2023-03-21T00:06:46.586Z,17.83
2023-03-21T00:09:13.693Z,16.30
2023-03-21T00:11:41.012Z,16.80
2023-03-21T00:14:09.146Z,17.58
2023-03-21T00:16:39.886Z,17.52
2023-03-21T00:19:09.662Z,17.30
2023-03-21T00:21:55.610Z,17.63
2023-03-21T00:24:25.434Z,17.13
2023-03-21T00:26:52.595Z,18.58
2023-03-21T00:29:19.897Z,18.77
2023-03-21T00:31:46.991Z,18.30
2023-03-21T00:34:14.202Z,17.60
2023-03-21T00:36:41.438Z,17.10
2023-03-21T00:39:08.564Z,16.65
2023-03-21T00:41:42.411Z,19.15
2023-03-21T00:44:11.669Z,18.27
2023-03-21T00:46:57.258Z,17.50
2023-03-21T00:49:25.850Z,18.27
2023-03-21T00:51:55.148Z,17.17
2023-03-21T00:54:24.298Z,18.15
2023-03-21T00:56:51.368Z,16.95
2023-03-21T00:59:18.456Z,16.92
2023-03-21T01:01:46.448Z,19.35
2023-03-21T01:04:14.487Z,19.20
2023-03-21T01:06:42.258Z,17.17
2023-03-21T01:09:16.548Z,16.10
2023-03-21T01:11:43.856Z,17.73
2023-03-21T01:14:21.849Z,17.55
2023-03-21T01:16:50.356Z,17.02
2023-03-21T01:19:26.288Z,16.92
2023-03-21T01:21:55.081Z,15.63
2023-03-21T01:24:22.295Z,15.30
2023-03-21T01:26:49.378Z,16.75
2023-03-21T01:29:16.449Z,16.20
2023-03-21T01:31:43.597Z,16.40
2023-03-21T01:34:10.702Z,17.65
2023-03-21T01:36:37.849Z,18.17
2023-03-21T01:39:06.099Z,16.85
2023-03-21T01:41:42.361Z,16.20
2023-03-21T01:44:13.279Z,15.65
2023-03-21T01:46:57.061Z,15.93
2023-03-21T01:49:38.607Z,17.08
2023-03-21T01:52:12.801Z,15.73
2023-03-21T01:54:42.456Z,14.52
2023-03-21T01:57:11.459Z,15.35
2023-03-21T01:59:39.410Z,14.35
2023-03-21T02:02:07.207Z,14.17
2023-03-21T02:04:35.231Z,15.07
2023-03-21T02:07:07.288Z,13.85
2023-03-21T02:09:35.622Z,13.65
2023-03-21T02:12:02.735Z,14.05
2023-03-21T02:14:29.809Z,14.48
2023-03-21T02:17:02.891Z,14.43
2023-03-21T02:19:53.428Z,14.47
2023-03-21T02:22:39.930Z,14.18
2023-03-21T02:25:26.023Z,13.00
2023-03-21T02:28:07.872Z,12.63
2023-03-21T02:30:45.833Z,13.45
2023-03-21T02:33:24.312Z,13.52
2023-03-21T02:35:58.605Z,13.05
2023-03-21T02:38:33.963Z,12.98
2023-03-21T02:41:13.218Z,13.48
2023-03-21T02:43:46.352Z,13.35
2023-03-21T02:46:17.636Z,12.10
2023-03-21T02:49:03.536Z,11.48
2023-03-21T02:51:31.102Z,11.57
2023-03-21T02:54:26.048Z,12.18
2023-03-21T02:56:47.141Z,12.40
2023-03-21T02:59:14.183Z,11.90
2023-03-21T03:01:41.278Z,11.23
2023-03-21T03:04:34.577Z,11.73
2023-03-21T03:07:07.820Z,11.40
2023-03-21T03:09:34.877Z,11.40
2023-03-21T03:12:11.425Z,11.23
2023-03-21T03:14:56.415Z,11.02
2023-03-21T03:17:41.295Z,11.77
2023-03-21T03:20:17.051Z,10.73
2023-03-21T03:23:20.079Z,9.43
2023-03-21T03:25:54.478Z,9.93
2023-03-21T03:28:23.471Z,10.90
2023-03-21T03:31:05.529Z,11.85
2023-03-21T03:33:34.665Z,11.98
2023-03-21T03:36:06.405Z,11.93
2023-03-21T03:38:33.976Z,13.52
2023-03-21T03:41:03.637Z,11.93
2023-03-21T03:43:33.459Z,11.48
2023-03-21T03:46:10.431Z,11.38
2023-03-21T03:48:46.258Z,11.25
2023-03-21T03:51:16.145Z,11.95
2023-03-21T03:53:47.178Z,13.75
2023-03-21T03:56:14.228Z,12.82
2023-03-21T03:58:45.920Z,14.50
2023-03-21T04:01:13.908Z,12.77
2023-03-21T04:03:49.505Z,13.65
2023-03-21T04:06:18.244Z,13.35
2023-03-21T04:08:45.324Z,13.35
2023-03-21T04:11:14.217Z,13.52
2023-03-21T04:13:41.296Z,12.30
2023-03-21T04:16:08.884Z,12.82
2023-03-21T04:18:35.985Z,13.25
2023-03-21T04:21:03.546Z,15.38
2023-03-21T04:23:30.811Z,14.07
2023-03-21T04:25:57.860Z,13.93
2023-03-21T04:28:24.920Z,15.32
2023-03-21T04:31:02.352Z,13.88
2023-03-21T04:33:32.051Z,14.60
2023-03-21T04:35:59.278Z,13.73
2023-03-21T04:38:30.496Z,14.90
2023-03-21T04:40:57.974Z,14.98
2023-03-21T04:43:25.045Z,14.60
2023-03-21T04:45:52.421Z,13.88
2023-03-21T04:48:19.916Z,14.25
2023-03-21T04:50:47.211Z,15.07
2023-03-21T04:53:14.278Z,15.30
2023-03-21T04:55:41.343Z,16.98
2023-03-21T04:58:08.516Z,15.07
2023-03-21T05:00:38.422Z,16.10
2023-03-21T05:03:08.958Z,16.25
2023-03-21T05:05:37.487Z,16.10
2023-03-21T05:08:06.780Z,15.07
2023-03-21T05:10:34.069Z,15.07
2023-03-21T05:13:01.229Z,15.30
2023-03-21T05:15:28.331Z,13.75
2023-03-21T05:17:55.385Z,14.40
2023-03-21T05:20:22.469Z,13.90
2023-03-21T05:22:50.584Z,13.77
2023-03-21T05:25:18.125Z,15.32
2023-03-21T05:27:45.381Z,14.43
2023-03-21T05:30:16.504Z,17.13
2023-03-21T05:32:43.578Z,15.40
2023-03-21T05:35:10.670Z,14.93
2023-03-21T05:37:38.382Z,15.07
2023-03-21T05:40:09.201Z,16.17
2023-03-21T05:42:36.278Z,14.60
2023-03-21T05:45:03.394Z,16.92
2023-03-21T05:47:30.529Z,16.23
2023-03-21T05:49:57.619Z,17.23
2023-03-21T05:52:24.669Z,17.58
2023-03-21T05:54:51.811Z,17.35
2023-03-21T05:57:19.147Z,16.30
2023-03-21T05:59:46.218Z,15.98
2023-03-21T06:02:13.325Z,18.58
2023-03-21T06:04:40.487Z,16.80
2023-03-21T06:07:07.545Z,17.90
2023-03-21T06:09:34.667Z,16.38
2023-03-21T06:12:01.727Z,17.13
2023-03-21T06:14:28.805Z,16.83
2023-03-21T06:16:56.092Z,17.13
2023-03-21T06:19:24.917Z,17.33
2023-03-21T06:21:51.967Z,18.60
2023-03-21T06:24:19.035Z,17.95
2023-03-21T06:26:46.344Z,17.67
2023-03-21T06:29:13.474Z,18.92
2023-03-21T06:31:40.675Z,19.48
2023-03-21T06:34:07.856Z,18.63
2023-03-21T06:36:35.142Z,18.45
2023-03-21T06:39:02.249Z,19.35
2023-03-21T06:41:29.326Z,19.57
2023-03-21T06:43:56.390Z,19.80
2023-03-21T06:46:23.455Z,21.30
2023-03-21T06:48:50.571Z,21.67
2023-03-21T06:51:17.851Z,22.65
2023-03-21T06:53:44.960Z,21.52
2023-03-21T06:56:12.641Z,22.45
2023-03-21T06:58:39.899Z,24.70
2023-03-21T07:01:08.139Z,24.90
2023-03-21T07:03:35.271Z,23.98
2023-03-21T07:06:07.081Z,25.08
2023-03-21T07:08:34.171Z,24.00
2023-03-21T07:11:01.295Z,24.83
2023-03-21T07:13:28.358Z,24.35
2023-03-21T07:15:55.537Z,22.77
2023-03-21T07:18:22.692Z,25.27
2023-03-21T07:20:50.934Z,25.10
2023-03-21T07:23:18.890Z,23.45
2023-03-21T07:25:46.419Z,24.85
2023-03-21T07:28:13.550Z,24.67
2023-03-21T07:30:40.897Z,24.10
2023-03-21T07:33:08.075Z,24.92
2023-03-21T07:35:37.284Z,24.60
2023-03-21T07:38:05.263Z,25.77
2023-03-21T07:40:32.621Z,23.52
2023-03-21T07:42:59.683Z,25.63
2023-03-21T07:45:27.338Z,26.25
2023-03-21T07:47:54.528Z,23.60
2023-03-21T07:50:21.682Z,24.88
2023-03-21T07:52:48.867Z,26.45
2023-03-21T07:55:17.262Z,26.63
2023-03-21T07:57:44.384Z,26.47
2023-03-21T08:00:12.579Z,26.30
2023-03-21T08:02:39.737Z,27.23
2023-03-21T08:05:06.972Z,29.05
2023-03-21T08:07:34.028Z,29.45
2023-03-21T08:10:01.261Z,30.27
2023-03-21T08:12:28.333Z,27.75
2023-03-21T08:14:55.475Z,28.27
2023-03-21T08:17:22.535Z,28.85
2023-03-21T08:19:49.668Z,28.08
2023-03-21T08:22:17.149Z,26.25
2023-03-21T08:24:44.254Z,26.70
2023-03-21T08:27:11.314Z,27.17
2023-03-21T08:29:40.558Z,26.48
2023-03-21T08:32:07.674Z,25.70
2023-03-21T08:34:34.780Z,24.90
2023-03-21T08:37:02.538Z,24.17
2023-03-21T08:39:29.633Z,24.00
2023-03-21T08:41:56.718Z,24.25
2023-03-21T08:44:25.218Z,23.75
2023-03-21T08:46:52.270Z,21.85
2023-03-21T08:49:19.374Z,22.08
2023-03-21T08:51:46.462Z,23.05
2023-03-21T08:54:20.535Z,22.05
2023-03-21T08:56:47.634Z,21.17
2023-03-21T08:59:14.717Z,21.23
2023-03-21T09:01:42.057Z,21.33
2023-03-21T09:04:10.888Z,21.53
2023-03-21T09:06:38.433Z,19.48
2023-03-21T09:09:07.510Z,21.40
2023-03-21T09:11:34.842Z,21.08
2023-03-21T09:14:01.980Z,19.50
2023-03-21T09:16:29.065Z,19.83
2023-03-21T09:18:57.017Z,18.90
2023-03-21T09:21:24.877Z,20.52
2023-03-21T09:23:52.909Z,19.48
2023-03-21T09:26:20.596Z,18.38
2023-03-21T09:28:48.045Z,18.38
2023-03-21T09:31:19.107Z,17.85
2023-03-21T09:33:46.192Z,16.83
2023-03-21T09:36:14.628Z,17.25
2023-03-21T09:38:44.925Z,17.52
2023-03-21T09:41:16.182Z,16.30
2023-03-21T09:43:51.342Z,15.77
2023-03-21T09:46:20.658Z,16.55
2023-03-21T09:48:57.133Z,15.90
2023-03-21T09:51:26.065Z,13.93
2023-03-21T09:53:55.936Z,14.13
2023-03-21T09:56:25.389Z,15.07
2023-03-21T09:58:54.608Z,14.05
2023-03-21T10:01:27.187Z,14.65
2023-03-21T10:03:55.452Z,16.10
2023-03-21T10:06:28.591Z,14.73
2023-03-21T10:08:57.187Z,15.77
2023-03-21T10:11:32.267Z,15.60
2023-03-21T10:14:00.720Z,14.32
2023-03-21T10:16:29.247Z,14.43
2023-03-21T10:18:56.696Z,14.60
2023-03-21T10:21:51.431Z,14.75
2023-03-21T10:24:15.675Z,13.00
2023-03-21T10:26:42.783Z,14.13
2023-03-21T10:29:10.649Z,13.43
2023-03-21T10:31:37.983Z,13.90
2023-03-21T10:34:07.396Z,12.73
2023-03-21T10:36:34.741Z,12.95
2023-03-21T10:39:09.013Z,13.77
2023-03-21T10:41:36.796Z,13.35
2023-03-21T10:44:17.157Z,12.60
2023-03-21T10:46:50.877Z,12.43
2023-03-21T10:49:18.922Z,12.40
2023-03-21T10:51:47.897Z,13.25
2023-03-21T10:54:15.557Z,13.30
2023-03-21T10:56:55.148Z,13.50
2023-03-21T10:59:22.793Z,13.38
2023-03-21T11:01:51.541Z,13.32
2023-03-21T11:04:28.155Z,14.93
2023-03-21T11:06:56.835Z,13.50
2023-03-21T11:09:25.054Z,13.63
2023-03-21T11:11:55.865Z,13.13
2023-03-21T11:14:26.984Z,13.38
2023-03-21T11:16:54.058Z,14.27
2023-03-21T11:19:32.175Z,15.60
2023-03-21T11:21:59.729Z,12.88
2023-03-21T11:24:29.071Z,13.48
2023-03-21T11:26:56.146Z,13.10
2023-03-21T11:29:34.567Z,14.00
2023-03-21T11:32:02.399Z,14.68
2023-03-21T11:34:31.848Z,15.45
2023-03-21T11:36:59.436Z,15.63
2023-03-21T11:39:32.241Z,14.02
2023-03-21T11:41:59.332Z,16.42
2023-03-21T11:44:27.641Z,17.45
2023-03-21T11:46:54.754Z,16.52
2023-03-21T11:49:22.106Z,18.65
2023-03-21T11:51:49.236Z,16.27
2023-03-21T11:54:22.985Z,16.90
2023-03-21T11:56:51.769Z,15.65
2023-03-21T11:59:25.225Z,18.40
2023-03-21T12:01:57.154Z,17.65
2023-03-21T12:04:36.602Z,16.58
2023-03-21T12:07:06.682Z,17.50
2023-03-21T12:09:47.483Z,18.30
2023-03-21T12:12:38.954Z,16.93
2023-03-21T12:15:10.437Z,17.60
2023-03-21T12:17:56.504Z,19.80
2023-03-21T12:20:28.009Z,18.20
2023-03-21T12:23:16.736Z,18.67
2023-03-21T12:25:48.679Z,18.80
2023-03-21T12:28:32.624Z,31.73
2023-03-21T12:31:04.474Z,17.00
2023-03-21T12:33:55.464Z,17.63
2023-03-21T12:36:27.100Z,16.67
2023-03-21T12:39:01.106Z,16.20
2023-03-21T12:41:29.626Z,16.50
2023-03-21T12:44:04.108Z,16.40
2023-03-21T12:46:42.079Z,18.30
2023-03-21T12:49:09.203Z,18.77
2023-03-21T12:51:40.836Z,17.27
2023-03-21T12:54:16.389Z,17.02
2023-03-21T12:56:43.435Z,17.33
2023-03-21T12:59:16.809Z,17.80
2023-03-21T13:01:43.881Z,22.10
2023-03-21T13:04:19.881Z,36.70
2023-03-21T13:06:47.098Z,17.48
2023-03-21T13:09:16.053Z,17.40
2023-03-21T13:11:43.970Z,18.55
2023-03-21T13:14:27.703Z,19.25
2023-03-21T13:17:00.524Z,17.77
2023-03-21T13:19:47.118Z,23.33
2023-03-21T13:22:22.982Z,16.75
2023-03-21T13:24:50.706Z,16.67
2023-03-21T13:27:34.009Z,17.02
2023-03-21T13:30:09.530Z,16.90
2023-03-21T13:32:39.719Z,17.67
2023-03-21T13:35:09.923Z,17.67
2023-03-21T13:37:39.458Z,16.98
2023-03-21T13:40:12.771Z,16.43
2023-03-21T13:42:43.715Z,16.58
2023-03-21T13:45:11.610Z,22.23
2023-03-21T13:47:40.478Z,22.63
2023-03-21T13:50:19.822Z,16.63
2023-03-21T13:53:05.080Z,14.68
2023-03-21T13:55:34.222Z,14.60
2023-03-21T13:58:01.400Z,32.83
2023-03-21T14:00:30.141Z,15.60
2023-03-21T14:03:00.985Z,19.03
2023-03-21T14:05:28.287Z,14.25
2023-03-21T14:08:05.951Z,14.32
2023-03-21T14:10:38.644Z,15.18
2023-03-21T14:13:06.053Z,14.45
2023-03-21T14:15:49.713Z,15.50
2023-03-21T14:18:35.025Z,16.90
2023-03-21T14:21:23.383Z,14.63
2023-03-21T14:24:07.218Z,14.95
2023-03-21T14:26:35.295Z,31.88
2023-03-21T14:29:05.246Z,17.10
2023-03-21T14:31:32.728Z,14.73
2023-03-21T14:34:00.312Z,15.15
2023-03-21T14:36:28.386Z,15.15
2023-03-21T14:38:58.426Z,15.20
2023-03-21T14:41:29.104Z,14.80
2023-03-21T14:44:15.008Z,15.48
2023-03-21T14:46:42.228Z,16.02
2023-03-21T14:49:13.198Z,16.23
2023-03-21T14:51:41.783Z,15.15
2023-03-21T14:54:10.121Z,16.05
2023-03-21T14:56:37.196Z,15.80
2023-03-21T14:59:04.246Z,16.52
2023-03-21T15:01:33.108Z,16.50
2023-03-21T15:04:00.738Z,16.10
2023-03-21T15:06:27.895Z,14.57
2023-03-21T15:08:58.729Z,16.73
2023-03-21T15:11:39.127Z,15.97
2023-03-21T15:14:07.075Z,17.07
2023-03-21T15:16:34.227Z,16.63
2023-03-21T15:19:02.020Z,15.88
2023-03-21T15:21:34.847Z,15.52
2023-03-21T15:24:28.430Z,15.50
2023-03-21T15:26:58.886Z,15.98
2023-03-21T15:29:27.339Z,15.73
2023-03-21T15:31:54.433Z,15.32
2023-03-21T15:34:26.108Z,14.10
2023-03-21T15:36:55.688Z,15.20
2023-03-21T15:39:23.779Z,14.73
2023-03-21T15:42:17.518Z,15.65
2023-03-21T15:44:49.395Z,14.30
2023-03-21T15:47:16.447Z,15.27
2023-03-21T15:49:43.574Z,14.80
2023-03-21T15:52:14.446Z,14.63
2023-03-21T15:54:50.155Z,27.60
2023-03-21T15:57:24.102Z,15.15
2023-03-21T15:59:51.752Z,15.27
2023-03-21T16:02:20.178Z,13.52
2023-03-21T16:05:25.820Z,17.15
2023-03-21T16:07:52.910Z,18.90
2023-03-21T16:10:28.005Z,14.82
2023-03-21T16:12:55.247Z,16.23
2023-03-21T16:15:22.701Z,15.20
2023-03-21T16:17:54.549Z,14.90
2023-03-21T16:20:22.855Z,15.27
2023-03-21T16:22:50.379Z,15.57
2023-03-21T16:25:17.987Z,15.48
2023-03-21T16:27:45.538Z,15.43
2023-03-21T16:30:13.873Z,14.85
2023-03-21T16:32:40.970Z,14.63
2023-03-21T16:35:08.499Z,16.75
2023-03-21T16:37:35.595Z,17.30
2023-03-21T16:40:05.753Z,16.70
2023-03-21T16:42:32.885Z,18.50
2023-03-21T16:44:59.946Z,22.25
2023-03-21T16:47:27.055Z,27.15
2023-03-21T16:49:55.589Z,18.45
2023-03-21T16:52:25.160Z,18.65
2023-03-21T16:54:53.317Z,18.20
2023-03-21T16:57:23.156Z,18.92
2023-03-21T16:59:50.614Z,25.33
2023-03-21T17:02:17.669Z,18.70
2023-03-21T17:04:44.920Z,21.38
2023-03-21T17:07:14.386Z,19.02
2023-03-21T17:09:42.475Z,21.15
2023-03-21T17:12:13.513Z,19.58
2023-03-21T17:14:41.222Z,19.08
2023-03-21T17:17:14.407Z,19.48
2023-03-21T17:19:41.490Z,20.53
2023-03-21T17:22:08.653Z,20.13
2023-03-21T17:24:35.867Z,19.15
2023-03-21T17:27:03.389Z,19.17
2023-03-21T17:29:30.943Z,18.98
2023-03-21T17:31:58.041Z,18.77
2023-03-21T17:34:25.926Z,19.70
2023-03-21T17:36:52.980Z,18.17
2023-03-21T17:39:22.513Z,17.73
2023-03-21T17:41:49.849Z,19.10
2023-03-21T17:44:16.927Z,18.83
2023-03-21T17:46:44.055Z,18.30
2023-03-21T17:49:12.401Z,20.20
2023-03-21T17:51:39.699Z,20.05
2023-03-21T17:54:06.889Z,20.70
2023-03-21T17:56:34.371Z,19.98
2023-03-21T17:59:05.309Z,19.87
2023-03-21T18:01:32.476Z,21.33
2023-03-21T18:04:02.805Z,19.30
2023-03-21T18:06:29.985Z,20.52
2023-03-21T18:08:57.555Z,22.10
2023-03-21T18:11:26.380Z,20.02
2023-03-21T18:14:03.608Z,20.20
2023-03-21T18:16:37.282Z,19.13
2023-03-21T18:19:04.764Z,18.85
2023-03-21T18:21:33.021Z,20.33
2023-03-21T18:24:00.188Z,19.58
2023-03-21T18:26:27.415Z,18.73
2023-03-21T18:29:47.310Z,19.98
2023-03-21T18:31:43.846Z,21.45
2023-03-21T18:34:14.515Z,19.02
2023-03-21T18:36:42.754Z,20.55
2023-03-21T18:39:09.979Z,22.10
2023-03-21T18:41:37.039Z,21.15
2023-03-21T18:44:12.984Z,22.65
2023-03-21T18:46:47.264Z,22.98
2023-03-21T18:49:58.936Z,21.00
2023-03-21T18:52:02.571Z,20.77
2023-03-21T18:54:30.129Z,18.95
2023-03-21T18:57:33.784Z,19.55
2023-03-21T18:59:44.530Z,19.67
2023-03-21T19:02:12.196Z,18.98
2023-03-21T19:04:39.337Z,19.58
2023-03-21T19:07:07.451Z,18.65
2023-03-21T19:09:58.253Z,18.88
2023-03-21T19:12:22.118Z,19.85
2023-03-21T19:14:49.263Z,18.73
2023-03-21T19:18:07.188Z,19.27
2023-03-21T19:20:04.235Z,18.90
2023-03-21T19:22:31.725Z,19.17
2023-03-21T19:24:58.939Z,20.17
2023-03-21T19:27:26.058Z,18.27
2023-03-21T19:30:10.836Z,19.55
2023-03-21T19:32:40.705Z,17.20
2023-03-21T19:35:07.937Z,18.23
2023-03-21T19:37:36.234Z,18.80
2023-03-21T19:40:03.601Z,18.98
2023-03-21T19:42:31.005Z,19.33
2023-03-21T19:44:58.200Z,20.00
2023-03-21T19:47:25.424Z,18.45
2023-03-21T19:52:41.051Z,19.38
2023-03-21T19:55:08.324Z,17.48
2023-03-21T19:57:36.200Z,17.93
2023-03-21T20:00:03.269Z,17.80
2023-03-21T20:02:35.917Z,17.95
2023-03-21T20:05:04.003Z,17.33
2023-03-21T20:07:32.619Z,18.35
2023-03-21T20:09:59.775Z,17.90
2023-03-21T20:12:27.456Z,18.17
2023-03-21T20:15:07.118Z,19.08
2023-03-21T20:17:39.821Z,17.45
2023-03-21T20:20:10.710Z,18.17
2023-03-21T20:23:05.077Z,18.08
2023-03-21T20:25:25.026Z,17.27
2023-03-21T20:28:10.497Z,18.20
2023-03-21T20:30:39.850Z,17.73
2023-03-21T20:33:07.107Z,19.95
2023-03-21T20:36:22.965Z,20.33
2023-03-21T20:38:21.650Z,19.52
2023-03-21T20:40:48.999Z,19.70
2023-03-21T20:44:02.165Z,17.75
2023-03-21T20:46:04.417Z,19.77
2023-03-21T20:48:31.765Z,19.00
2023-03-21T20:51:01.862Z,19.10
2023-03-21T20:53:31.506Z,17.63
2023-03-21T20:56:02.170Z,18.70
2023-03-21T20:58:55.313Z,17.27
2023-03-21T21:01:17.451Z,18.83
2023-03-21T21:03:44.666Z,17.35
2023-03-21T21:06:29.844Z,17.38
2023-03-21T21:08:58.057Z,17.33
2023-03-21T21:12:05.058Z,18.15
2023-03-21T21:14:20.454Z,20.67
2023-03-21T21:16:51.610Z,20.80
2023-03-21T21:19:21.553Z,21.25
2023-03-21T21:21:49.773Z,21.98
2023-03-21T21:24:16.865Z,20.17
2023-03-21T21:26:46.248Z,20.92
2023-03-21T21:29:16.943Z,20.13
2023-03-21T21:31:48.776Z,20.45
2023-03-21T21:34:16.133Z,22.47
2023-03-21T21:36:44.905Z,22.27
2023-03-21T21:39:13.161Z,21.77
2023-03-21T21:41:40.706Z,21.73
2023-03-21T21:44:07.795Z,21.70
2023-03-21T21:46:34.992Z,23.85
2023-03-21T21:49:02.395Z,24.47
2023-03-21T21:51:29.755Z,23.20
2023-03-21T21:53:57.220Z,23.73
2023-03-21T21:56:25.850Z,24.20
2023-03-21T21:58:55.983Z,23.88
2023-03-21T22:01:23.110Z,24.10
2023-03-21T22:03:51.611Z,24.10
2023-03-21T22:06:18.722Z,25.83
2023-03-21T22:08:47.217Z,24.52
2023-03-21T22:11:14.938Z,26.15
2023-03-21T22:13:43.529Z,26.98
2023-03-21T22:16:10.795Z,26.63
2023-03-21T22:18:38.533Z,25.70
2023-03-21T22:21:06.247Z,26.65
2023-03-21T22:23:33.369Z,27.88
2023-03-21T22:26:00.520Z,27.52
2023-03-21T22:28:27.684Z,26.17
2023-03-21T22:30:57.755Z,29.50
2023-03-21T22:33:24.868Z,30.95
2023-03-21T22:35:52.219Z,29.73
2023-03-21T22:38:27.924Z,29.43
2023-03-21T22:40:58.332Z,27.88
2023-03-21T22:43:25.500Z,30.42
2023-03-21T22:45:52.761Z,30.17
2023-03-21T22:48:20.201Z,30.52
2023-03-21T22:50:47.376Z,31.98
2023-03-21T22:53:14.468Z,32.67
2023-03-21T22:55:41.588Z,30.42
2023-03-21T22:58:08.670Z,36.60
2023-03-21T23:00:35.862Z,32.42
2023-03-21T23:03:02.980Z,33.53
2023-03-21T23:05:30.137Z,34.08
2023-03-21T23:07:57.219Z,37.53
2023-03-21T23:10:25.517Z,39.35
2023-03-21T23:12:52.679Z,38.60
2023-03-21T23:15:19.792Z,41.30
2023-03-21T23:17:47.904Z,35.97
2023-03-21T23:20:15.075Z,40.42
2023-03-21T23:22:42.231Z,36.40
2023-03-21T23:25:09.458Z,40.13
2023-03-21T23:27:36.870Z,36.15
2023-03-21T23:30:06.266Z,35.80
2023-03-21T23:32:33.453Z,34.45
2023-03-21T23:35:00.636Z,32.53
2023-03-21T23:37:29.936Z,31.33
2023-03-21T23:39:57.137Z,33.65
2023-03-21T23:42:25.262Z,32.83
2023-03-21T23:44:52.372Z,34.70
2023-03-21T23:47:19.463Z,33.03
2023-03-21T23:49:49.107Z,33.35
2023-03-21T23:52:16.612Z,32.40
2023-03-21T23:54:43.817Z,32.17
2023-03-21T23:57:11.195Z,32.30
2023-03-21T23:59:38.313Z,30.17
